createdAt,value
2022-11-22T09:50:10.572Z,0.98
2022-11-22T09:52:51.254Z,0.70
2022-11-22T09:55:26.595Z,1.10
2022-11-22T09:58:19.106Z,0.80
2022-11-22T10:00:52.042Z,0.98
2022-11-22T10:03:28.422Z,0.73
2022-11-22T10:05:58.240Z,1.08
2022-11-22T10:08:24.977Z,0.93
2022-11-22T10:10:54.521Z,1.20
2022-11-22T10:13:43.349Z,1.00
2022-11-22T10:16:10.292Z,1.10
2022-11-22T10:18:58.499Z,0.95
2022-11-22T10:21:26.321Z,1.70
2022-11-22T10:23:53.589Z,0.82
2022-11-22T10:26:38.709Z,0.85
2022-11-22T10:29:45.066Z,0.82
2022-11-22T10:32:20.448Z,1.02
2022-11-22T10:35:00.083Z,1.00
2022-11-22T10:37:47.988Z,0.80
2022-11-22T10:40:37.613Z,0.90
2022-11-22T10:43:27.518Z,0.90
2022-11-22T10:46:09.279Z,0.98
2022-11-22T10:48:41.332Z,1.23
2022-11-22T10:51:17.105Z,1.20
2022-11-22T10:54:03.905Z,1.02
2022-11-22T10:56:54.085Z,1.00
2022-11-22T10:59:40.870Z,0.95
2022-11-22T11:02:31.338Z,1.38
2022-11-22T11:05:00.871Z,1.08
2022-11-22T11:07:28.106Z,1.00
2022-11-22T11:10:25.942Z,0.80
2022-11-22T11:13:01.795Z,0.80
2022-11-22T11:15:41.425Z,1.00
2022-11-22T11:18:27.109Z,0.70
2022-11-22T11:20:54.112Z,0.90
2022-11-22T11:23:21.019Z,0.80
2022-11-22T11:25:52.257Z,0.80
2022-11-22T11:28:25.352Z,1.00
2022-11-22T11:31:00.022Z,1.30
2022-11-22T11:33:31.917Z,0.80
2022-11-22T11:36:10.575Z,1.20
2022-11-22T11:38:50.515Z,1.40
2022-11-22T11:41:25.408Z,1.60
2022-11-22T11:43:54.674Z,1.88
2022-11-22T11:46:24.114Z,1.48
2022-11-22T11:48:52.897Z,1.77
2022-11-22T11:51:37.686Z,1.83
2022-11-22T11:54:44.088Z,1.80
2022-11-22T11:57:15.622Z,1.48
2022-11-22T11:59:46.692Z,1.58
2022-11-22T12:02:21.489Z,2.58
2022-11-22T12:04:56.088Z,2.13
2022-11-22T12:07:27.641Z,2.83
2022-11-22T12:09:55.980Z,2.27
2022-11-22T12:12:48.988Z,3.40
2022-11-22T12:17:56.168Z,2.55
2022-11-22T12:20:29.201Z,2.53
2022-11-22T12:23:23.727Z,2.40
2022-11-22T12:25:54.902Z,2.50
2022-11-22T12:28:24.846Z,2.38
2022-11-22T12:30:57.083Z,2.42
2022-11-22T12:33:54.603Z,2.83
2022-11-22T12:36:32.517Z,2.72
2022-11-22T12:39:04.377Z,2.72
2022-11-22T12:41:33.628Z,2.80
2022-11-22T12:44:04.287Z,2.97
2022-11-22T12:46:39.900Z,2.90
2022-11-22T12:49:18.221Z,3.03
2022-11-22T12:51:52.098Z,3.63
2022-11-22T12:54:30.654Z,3.47
2022-11-22T12:57:02.622Z,4.03
2022-11-22T12:59:44.249Z,4.47
2022-11-22T13:02:14.131Z,4.35
2022-11-22T13:05:01.688Z,3.97
2022-11-22T13:07:44.200Z,4.47
2022-11-22T13:10:40.000Z,4.22
2022-11-22T13:13:17.480Z,4.88
2022-11-22T13:15:45.867Z,5.50
2022-11-22T13:18:16.766Z,4.10
2022-11-22T13:21:02.568Z,3.30
2022-11-22T13:23:35.177Z,3.90
2022-11-22T13:28:46.677Z,3.25
2022-11-22T18:37:03.164Z,6.90
2022-11-22T18:39:33.692Z,6.50
2022-11-22T18:42:01.045Z,8.82
2022-11-22T18:44:27.933Z,9.55
2022-11-22T18:46:54.807Z,8.23
2022-11-22T18:49:21.718Z,7.38
2022-11-22T18:51:48.694Z,6.30
2022-11-22T18:54:16.052Z,10.13
2022-11-22T18:56:42.955Z,9.50
2022-11-22T18:59:12.787Z,8.80
2022-11-22T19:01:40.651Z,9.02
2022-11-22T19:04:09.278Z,9.30
2022-11-22T19:06:36.126Z,9.27
2022-11-22T19:09:06.962Z,9.18
2022-11-22T19:11:34.027Z,13.43
2022-11-22T19:14:01.221Z,12.82
2022-11-22T19:16:30.222Z,8.82
2022-11-22T19:18:58.649Z,6.65
2022-11-22T19:21:28.372Z,6.60
2022-11-22T19:23:56.214Z,5.90
2022-11-22T19:26:25.228Z,8.20
2022-11-22T19:28:55.966Z,7.82
2022-11-22T19:31:25.950Z,7.07
2022-11-22T19:33:53.011Z,6.97
2022-11-22T19:36:25.334Z,5.63
2022-11-22T19:38:57.846Z,5.47
2022-11-22T19:41:25.088Z,4.47
2022-11-22T19:43:52.438Z,5.32
2022-11-22T19:46:20.047Z,6.03
2022-11-22T19:48:54.340Z,5.50
2022-11-22T19:51:22.227Z,6.68
2022-11-22T19:53:49.358Z,9.50
2022-11-22T19:56:18.030Z,7.45
2022-11-22T19:58:50.426Z,7.57
2022-11-22T20:01:17.754Z,5.03
2022-11-22T20:03:45.477Z,4.47
2022-11-22T20:06:14.095Z,4.95
2022-11-22T20:08:41.587Z,7.25
2022-11-22T20:11:09.885Z,5.80
2022-11-22T20:13:39.132Z,6.53
2022-11-22T20:16:07.454Z,5.35
2022-11-22T20:18:34.662Z,5.45
2022-11-22T20:21:03.128Z,9.95
2022-11-22T20:23:31.019Z,8.23
2022-11-22T20:26:09.970Z,11.02
2022-11-22T20:28:38.127Z,13.07
2022-11-22T20:31:12.335Z,7.07
2022-11-22T20:33:42.927Z,5.80
2022-11-22T20:36:15.312Z,5.28
2022-11-22T20:38:43.510Z,6.35
2022-11-22T20:41:12.245Z,7.00
2022-11-22T20:43:39.615Z,6.10
2022-11-22T20:46:09.231Z,6.85
2022-11-22T20:48:37.954Z,6.18
2022-11-22T20:51:10.750Z,6.90
2022-11-22T20:53:37.875Z,6.63
2022-11-22T20:56:05.202Z,6.95
2022-11-22T20:58:32.267Z,7.18
2022-11-22T21:00:59.425Z,5.75
2022-11-22T21:03:27.663Z,7.90
2022-11-22T21:05:55.511Z,7.50
2022-11-22T21:08:22.896Z,6.15
2022-11-22T21:10:50.054Z,7.15
2022-11-22T21:13:17.125Z,7.15
2022-11-22T21:15:44.348Z,6.40
2022-11-22T21:18:27.353Z,6.43
2022-11-22T21:20:54.221Z,6.70
2022-11-22T21:23:21.051Z,6.03
2022-11-22T21:25:50.447Z,6.40
2022-11-22T21:28:17.396Z,5.35
2022-11-22T21:30:44.166Z,6.38
2022-11-22T21:33:11.041Z,6.22
2022-11-22T21:35:37.811Z,6.10
2022-11-22T21:38:04.638Z,5.68
2022-11-22T21:40:31.474Z,6.28
2022-11-22T21:42:58.541Z,5.55
2022-11-22T21:45:25.286Z,5.80
2022-11-22T21:47:52.071Z,5.90
2022-11-22T21:50:19.024Z,5.68
2022-11-22T21:52:45.789Z,6.35
2022-11-22T21:55:13.092Z,6.45
2022-11-22T21:57:39.945Z,6.13
2022-11-22T22:00:07.905Z,5.68
2022-11-22T22:02:35.758Z,5.70
2022-11-22T22:05:02.697Z,5.95
2022-11-22T22:07:51.301Z,5.43
2022-11-22T22:10:16.805Z,4.57
2022-11-22T22:12:43.625Z,5.05
2022-11-22T22:15:14.590Z,5.00
2022-11-22T22:17:41.471Z,4.88
2022-11-22T22:20:08.677Z,4.72
2022-11-22T22:22:36.946Z,4.45
